createdAt,value
2023-05-21T00:01:24.908Z,15.60
2023-05-21T00:03:47.161Z,15.62
2023-05-21T00:06:14.806Z,15.69
2023-05-21T00:08:37.991Z,15.72
2023-05-21T00:11:09.092Z,15.75
2023-05-21T00:13:30.084Z,15.75
2023-05-21T00:16:05.590Z,15.72
2023-05-21T00:18:40.500Z,15.72
2023-05-21T00:21:05.400Z,15.65
2023-05-21T00:23:42.433Z,15.63
2023-05-21T00:26:11.677Z,15.59
2023-05-21T00:28:46.291Z,15.59
2023-05-21T00:31:12.339Z,15.57
2023-05-21T00:33:41.972Z,15.51
2023-05-21T00:36:09.258Z,15.42
2023-05-21T00:38:36.297Z,15.32
2023-05-21T00:41:04.634Z,15.27
2023-05-21T00:43:21.902Z,15.22
2023-05-21T00:45:48.716Z,15.20
2023-05-21T00:48:17.305Z,15.14
2023-05-21T00:50:52.496Z,15.09
2023-05-21T00:53:26.065Z,15.06
2023-05-21T00:55:58.109Z,15.04
2023-05-21T00:58:32.215Z,15.01
2023-05-21T01:00:53.069Z,14.97
2023-05-21T01:03:21.601Z,14.92
2023-05-21T01:05:46.176Z,14.83
2023-05-21T01:08:16.115Z,14.80
2023-05-21T01:10:44.353Z,14.77
2023-05-21T01:13:09.655Z,14.75
2023-05-21T01:15:41.025Z,14.72
2023-05-21T01:18:03.695Z,14.68
2023-05-21T01:20:31.615Z,14.68
2023-05-21T01:22:59.414Z,14.70
2023-05-21T01:25:27.808Z,14.68
2023-05-21T01:27:50.750Z,14.70
2023-05-21T01:30:26.576Z,14.70
2023-05-21T01:33:00.460Z,14.66
2023-05-21T01:35:38.134Z,14.59
2023-05-21T01:38:03.713Z,14.56
2023-05-21T01:40:42.561Z,14.56
2023-05-21T01:43:19.816Z,14.56
2023-05-21T01:45:57.664Z,14.53
2023-05-21T01:48:34.013Z,14.51
2023-05-21T01:51:09.040Z,14.47
2023-05-21T01:53:49.258Z,14.45
2023-05-21T01:56:17.099Z,14.45
2023-05-21T01:58:43.249Z,14.47
2023-05-21T02:01:18.824Z,14.46
2023-05-21T02:03:44.623Z,14.43
2023-05-21T02:06:04.425Z,14.42
2023-05-21T02:08:21.026Z,14.45
2023-05-21T02:10:55.787Z,14.45
2023-05-21T02:13:14.260Z,14.42
2023-05-21T02:15:36.034Z,14.38
2023-05-21T02:18:02.310Z,14.32
2023-05-21T02:20:38.440Z,14.27
2023-05-21T02:22:58.217Z,14.19
2023-05-21T02:25:17.712Z,14.15
2023-05-21T02:27:55.113Z,14.07
2023-05-21T02:30:30.042Z,14.04
2023-05-21T02:33:04.829Z,14.03
2023-05-21T02:35:30.844Z,14.02
2023-05-21T02:37:49.126Z,14.03
2023-05-21T02:40:20.642Z,14.02
2023-05-21T02:42:45.205Z,13.99
2023-05-21T02:45:17.933Z,14.00
2023-05-21T02:47:51.707Z,14.03
2023-05-21T02:50:14.054Z,14.06
2023-05-21T02:52:36.919Z,14.09
2023-05-21T02:55:14.199Z,14.13
2023-05-21T02:57:42.148Z,14.14
2023-05-21T03:00:10.948Z,14.10
2023-05-21T03:02:35.197Z,14.07
2023-05-21T03:05:11.610Z,14.03
2023-05-21T03:07:45.565Z,14.03
2023-05-21T03:10:07.392Z,14.03
2023-05-21T03:12:33.627Z,14.02
2023-05-21T03:15:07.492Z,14.03
2023-05-21T03:17:24.139Z,14.03
2023-05-21T03:19:52.438Z,14.05
2023-05-21T03:22:11.371Z,14.07
2023-05-21T03:24:39.502Z,14.07
2023-05-21T03:27:08.089Z,14.05
2023-05-21T03:29:35.861Z,14.05
2023-05-21T03:32:05.341Z,14.04
2023-05-21T03:34:29.023Z,14.03
2023-05-21T03:37:04.267Z,14.02
2023-05-21T03:39:26.122Z,13.99
2023-05-21T03:41:54.050Z,13.96
2023-05-21T03:44:14.600Z,13.95
2023-05-21T03:46:42.514Z,13.93
2023-05-21T03:49:17.313Z,13.88
2023-05-21T03:51:44.833Z,13.84
2023-05-21T03:54:13.430Z,13.82
2023-05-21T03:56:40.968Z,13.81
2023-05-21T03:59:01.031Z,13.83
2023-05-21T04:01:36.116Z,13.84
2023-05-21T04:03:55.106Z,13.84
2023-05-21T04:06:22.461Z,13.84
2023-05-21T04:08:43.773Z,13.85
2023-05-21T04:11:10.541Z,13.84
2023-05-21T04:13:29.686Z,13.82
2023-05-21T04:16:00.112Z,13.80
2023-05-21T04:18:28.123Z,13.79
2023-05-21T04:21:01.871Z,13.80
2023-05-21T04:23:24.545Z,13.80
2023-05-21T04:25:51.807Z,13.77
2023-05-21T04:28:21.338Z,13.75
2023-05-21T04:30:51.154Z,13.75
2023-05-21T04:33:11.221Z,13.72
2023-05-21T04:35:38.266Z,13.72
2023-05-21T04:38:06.843Z,13.71
2023-05-21T04:40:34.098Z,13.71
2023-05-21T04:43:05.566Z,13.73
2023-05-21T04:45:39.191Z,13.73
2023-05-21T04:48:05.748Z,13.69
2023-05-21T04:50:40.384Z,13.66
2023-05-21T04:53:09.559Z,13.66
2023-05-21T04:55:33.162Z,13.65
2023-05-21T04:58:00.679Z,13.65
2023-05-21T05:00:34.831Z,13.65
2023-05-21T05:03:03.840Z,13.66
2023-05-21T05:05:31.302Z,13.69
2023-05-21T05:07:53.840Z,13.70
2023-05-21T05:10:21.618Z,13.70
2023-05-21T05:12:54.514Z,13.70
2023-05-21T05:15:30.374Z,13.69
2023-05-21T05:18:07.757Z,13.69
2023-05-21T05:20:42.380Z,13.69
2023-05-21T05:23:17.873Z,13.69
2023-05-21T05:25:36.794Z,13.68
2023-05-21T05:28:07.640Z,13.68
2023-05-21T05:30:35.335Z,13.71
2023-05-21T05:32:58.124Z,13.72
2023-05-21T05:35:19.891Z,13.72
2023-05-21T05:37:54.561Z,13.72
2023-05-21T05:40:15.552Z,13.72
2023-05-21T05:42:41.333Z,13.71
2023-05-21T05:45:18.509Z,13.68
2023-05-21T05:47:43.084Z,13.64
2023-05-21T05:50:03.115Z,13.62
2023-05-21T05:52:30.545Z,13.64
2023-05-21T05:55:05.328Z,13.63
2023-05-21T05:57:26.740Z,13.63
2023-05-21T05:59:53.696Z,13.58
2023-05-21T06:02:19.142Z,13.58
2023-05-21T06:04:49.203Z,13.56
2023-05-21T06:07:22.435Z,13.54
2023-05-21T06:09:48.219Z,13.52
2023-05-21T06:12:22.360Z,13.52
2023-05-21T06:14:39.716Z,13.53
2023-05-21T06:17:13.471Z,13.52
2023-05-21T06:19:48.213Z,13.51
2023-05-21T06:22:21.452Z,13.49
2023-05-21T06:24:49.826Z,13.47
2023-05-21T06:27:17.171Z,13.47
2023-05-21T06:29:43.282Z,13.46
2023-05-21T06:32:05.122Z,13.48
2023-05-21T06:34:39.221Z,13.48
2023-05-21T06:36:59.880Z,13.48
2023-05-21T06:39:21.324Z,13.49
2023-05-21T06:41:48.710Z,13.51
2023-05-21T06:44:29.184Z,13.52
2023-05-21T06:47:04.601Z,13.52
2023-05-21T06:49:39.854Z,13.54
2023-05-21T06:52:03.378Z,13.54
2023-05-21T06:54:39.244Z,13.53
2023-05-21T06:57:03.342Z,13.55
2023-05-21T06:59:21.409Z,13.56
2023-05-21T07:01:56.654Z,13.56
2023-05-21T07:04:25.613Z,13.51
2023-05-21T07:06:46.343Z,13.43
2023-05-21T07:09:19.417Z,13.35
2023-05-21T07:11:44.639Z,13.26
2023-05-21T07:14:21.754Z,13.25
2023-05-21T07:16:49.511Z,13.25
2023-05-21T07:19:15.339Z,13.26
2023-05-21T07:21:35.987Z,13.29
2023-05-21T07:23:54.023Z,13.33
2023-05-21T07:26:16.126Z,13.37
2023-05-21T07:28:36.557Z,13.40
2023-05-21T07:31:10.193Z,13.43
2023-05-21T07:33:27.498Z,13.44
2023-05-21T07:36:01.639Z,13.45
2023-05-21T07:38:28.069Z,13.45
2023-05-21T07:40:54.956Z,13.37
2023-05-21T07:43:29.452Z,13.25
2023-05-21T07:46:01.612Z,13.12
2023-05-21T07:48:29.622Z,13.01
2023-05-21T07:51:03.872Z,12.98
2023-05-21T07:53:33.519Z,12.99
2023-05-21T07:56:01.170Z,13.01
2023-05-21T07:58:21.401Z,13.04
2023-05-21T08:00:55.672Z,13.06
2023-05-21T08:03:32.037Z,13.09
2023-05-21T08:05:54.901Z,13.12
2023-05-21T08:08:28.660Z,13.15
2023-05-21T08:11:04.068Z,13.16
2023-05-21T08:13:38.438Z,13.17
2023-05-21T08:16:14.455Z,13.16
2023-05-21T08:18:37.880Z,13.17
2023-05-21T08:20:58.776Z,13.16
2023-05-21T08:23:32.832Z,13.14
2023-05-21T08:25:56.055Z,13.12
2023-05-21T08:28:30.224Z,13.07
2023-05-21T08:31:03.991Z,13.00
2023-05-21T08:33:32.992Z,12.98
2023-05-21T08:36:07.038Z,12.99
2023-05-21T08:38:37.552Z,13.02
2023-05-21T08:41:26.213Z,13.04
2023-05-21T08:43:59.080Z,13.00
2023-05-21T08:46:20.194Z,12.93
2023-05-21T08:48:51.924Z,12.89
2023-05-21T08:51:20.132Z,12.82
2023-05-21T08:53:59.240Z,12.79
2023-05-21T08:56:25.859Z,12.73
2023-05-21T08:58:52.499Z,12.67
2023-05-21T09:01:24.783Z,12.59
2023-05-21T09:03:59.091Z,12.51
2023-05-21T09:06:26.791Z,12.45
2023-05-21T09:09:08.019Z,12.39
2023-05-21T09:11:38.495Z,12.35
2023-05-21T09:14:07.274Z,12.31
2023-05-21T09:16:45.050Z,12.27
2023-05-21T09:19:10.960Z,12.26
2023-05-21T09:21:45.421Z,12.26
2023-05-21T09:24:21.157Z,12.24
2023-05-21T09:26:49.039Z,12.23
2023-05-21T09:29:10.566Z,12.22
2023-05-21T09:31:36.358Z,12.21
2023-05-21T09:34:05.534Z,12.22
2023-05-21T09:36:30.616Z,12.26
2023-05-21T09:39:06.223Z,12.28
2023-05-21T09:41:38.359Z,12.33
2023-05-21T09:44:01.997Z,12.36
2023-05-21T09:46:41.178Z,12.40
2023-05-21T09:49:29.246Z,12.43
2023-05-21T09:52:06.662Z,12.48
2023-05-21T09:54:34.780Z,12.53
2023-05-21T09:57:11.022Z,12.59
2023-05-21T09:59:47.555Z,12.63
2023-05-21T10:02:26.208Z,12.65
2023-05-21T10:05:02.537Z,12.64
2023-05-21T10:07:31.159Z,12.66
2023-05-21T10:10:00.974Z,12.67
2023-05-21T10:12:25.188Z,12.68
2023-05-21T10:14:55.227Z,12.69
2023-05-21T10:17:21.353Z,12.66
2023-05-21T10:19:43.380Z,12.64
2023-05-21T10:22:05.728Z,12.66
2023-05-21T10:24:40.557Z,12.67
2023-05-21T10:27:16.249Z,12.70
2023-05-21T10:29:44.979Z,12.73
2023-05-21T10:32:12.176Z,12.75
2023-05-21T10:34:31.705Z,12.78
2023-05-21T10:37:11.104Z,12.79
2023-05-21T10:39:33.398Z,12.78
2023-05-21T10:42:20.168Z,12.80
2023-05-21T10:44:59.786Z,12.82
2023-05-21T10:47:54.140Z,12.83
2023-05-21T10:50:45.835Z,12.85
2023-05-21T10:53:23.589Z,12.84
2023-05-21T10:56:02.749Z,12.83
2023-05-21T10:59:03.229Z,12.85
2023-05-21T11:01:40.879Z,12.84
2023-05-21T11:04:01.866Z,12.84
2023-05-21T11:06:28.415Z,12.86
2023-05-21T11:08:56.365Z,12.87
2023-05-21T11:11:47.236Z,12.87
2023-05-21T11:14:36.428Z,12.88
2023-05-21T11:16:59.221Z,12.89
2023-05-21T11:19:35.731Z,12.90
2023-05-21T11:22:01.900Z,12.91
2023-05-21T11:24:40.400Z,12.90
2023-05-21T11:27:09.859Z,12.90
2023-05-21T11:29:50.763Z,12.91
2023-05-21T11:32:25.352Z,12.93
2023-05-21T11:34:52.337Z,12.94
2023-05-21T11:37:41.996Z,12.94
2023-05-21T11:40:37.034Z,12.92
2023-05-21T11:43:04.001Z,12.88
2023-05-21T11:45:23.890Z,12.86
2023-05-21T11:47:53.131Z,12.85
2023-05-21T11:50:22.166Z,12.85
2023-05-21T11:52:43.420Z,12.87
2023-05-21T11:55:19.288Z,12.86
2023-05-21T11:57:49.221Z,12.84
2023-05-21T12:00:26.379Z,12.81
2023-05-21T12:02:57.169Z,12.80
2023-05-21T12:05:22.156Z,12.78
2023-05-21T12:07:44.213Z,12.77
2023-05-21T12:10:09.721Z,12.76
2023-05-21T12:12:53.396Z,12.77
2023-05-21T12:15:24.854Z,12.78
2023-05-21T12:17:59.098Z,12.77
2023-05-21T12:20:25.280Z,12.77
2023-05-21T12:22:49.161Z,12.76
2023-05-21T12:25:18.235Z,12.77
2023-05-21T12:27:49.009Z,12.76
2023-05-21T12:30:17.981Z,12.68
2023-05-21T12:32:39.363Z,12.61
2023-05-21T12:35:24.010Z,12.58
2023-05-21T12:37:58.774Z,12.57
2023-05-21T12:40:23.370Z,12.56
2023-05-21T12:42:43.712Z,12.54
2023-05-21T12:45:20.442Z,12.55
2023-05-21T12:47:57.287Z,12.54
2023-05-21T12:50:27.309Z,12.51
2023-05-21T12:53:04.363Z,12.45
2023-05-21T12:55:29.194Z,12.44
2023-05-21T12:57:52.912Z,12.37
2023-05-21T13:00:27.098Z,12.29
2023-05-21T13:02:51.163Z,12.24
2023-05-21T13:05:19.444Z,12.18
2023-05-21T13:07:48.522Z,12.13
2023-05-21T13:10:21.949Z,12.11
2023-05-21T13:12:49.328Z,12.08
2023-05-21T13:15:17.341Z,12.04
2023-05-21T13:17:58.075Z,12.03
2023-05-21T13:20:27.906Z,12.01
2023-05-21T13:23:05.565Z,12.00
2023-05-21T13:25:41.146Z,12.02
2023-05-21T13:28:14.318Z,12.03
2023-05-21T13:30:36.533Z,12.04
2023-05-21T13:32:58.597Z,12.03
2023-05-21T13:35:26.323Z,12.05
2023-05-21T13:37:46.023Z,12.07
2023-05-21T13:40:16.955Z,12.09
2023-05-21T13:42:52.295Z,12.11
2023-05-21T13:45:17.966Z,12.12
2023-05-21T13:47:52.568Z,12.16
2023-05-21T13:50:28.701Z,12.17
2023-05-21T13:52:56.221Z,12.18
2023-05-21T13:55:29.762Z,12.19
2023-05-21T13:58:03.166Z,12.20
2023-05-21T14:00:37.285Z,12.21
2023-05-21T14:03:11.813Z,12.23
2023-05-21T14:05:42.079Z,12.27
2023-05-21T14:08:15.342Z,12.31
2023-05-21T14:10:41.750Z,12.32
2023-05-21T14:13:19.725Z,12.31
2023-05-21T14:15:40.101Z,12.29
2023-05-21T14:18:02.812Z,12.29
2023-05-21T14:20:37.711Z,12.31
2023-05-21T14:23:05.592Z,12.34
2023-05-21T14:25:40.632Z,12.36
2023-05-21T14:28:09.793Z,12.39
2023-05-21T14:30:32.687Z,12.42
2023-05-21T14:32:57.961Z,12.46
2023-05-21T14:35:32.033Z,12.45
2023-05-21T14:38:06.770Z,12.45
2023-05-21T14:40:42.710Z,12.47
2023-05-21T14:43:09.172Z,12.51
2023-05-21T14:45:36.602Z,12.52
2023-05-21T14:48:01.874Z,12.52
2023-05-21T14:50:20.829Z,12.49
2023-05-21T14:52:43.750Z,12.45
2023-05-21T14:55:15.054Z,12.41
2023-05-21T14:57:39.526Z,12.41
2023-05-21T15:00:06.673Z,12.39
2023-05-21T15:02:27.995Z,12.41
2023-05-21T15:05:01.193Z,12.44
2023-05-21T15:07:36.155Z,12.46
2023-05-21T15:09:57.395Z,12.50
2023-05-21T15:12:16.896Z,12.50
2023-05-21T15:14:50.685Z,12.45
2023-05-21T15:17:11.705Z,12.40
2023-05-21T15:19:44.045Z,12.35
2023-05-21T15:22:12.936Z,12.32
2023-05-21T15:24:46.376Z,12.33
2023-05-21T15:27:08.048Z,12.32
2023-05-21T15:29:25.838Z,12.28
2023-05-21T15:31:44.998Z,12.28
2023-05-21T15:34:12.482Z,12.28
2023-05-21T15:36:36.683Z,12.30
2023-05-21T15:39:04.526Z,12.31
2023-05-21T15:41:43.585Z,12.35
2023-05-21T15:44:20.395Z,12.38
2023-05-21T15:46:45.623Z,12.41
2023-05-21T15:49:19.248Z,12.46
2023-05-21T15:51:42.903Z,12.51
2023-05-21T15:54:10.758Z,12.53
2023-05-21T15:56:31.095Z,12.53
2023-05-21T15:58:59.736Z,12.55
2023-05-21T16:01:26.076Z,12.60
2023-05-21T16:03:50.195Z,12.59
2023-05-21T16:06:14.369Z,12.59
2023-05-21T16:08:42.316Z,12.57
2023-05-21T16:11:17.345Z,12.54
2023-05-21T16:13:52.600Z,12.54
2023-05-21T16:16:23.043Z,12.54
2023-05-21T16:18:46.540Z,12.55
2023-05-21T16:21:15.039Z,12.54
2023-05-21T16:23:40.790Z,12.56
2023-05-21T16:26:14.191Z,12.53
2023-05-21T16:28:41.019Z,12.49
2023-05-21T16:31:14.172Z,12.44
2023-05-21T16:33:42.551Z,12.41
2023-05-21T16:36:03.269Z,12.45
2023-05-21T16:38:29.105Z,12.47
2023-05-21T16:41:03.873Z,12.51
2023-05-21T16:43:30.022Z,12.53
2023-05-21T16:45:50.352Z,12.61
2023-05-21T16:48:18.769Z,12.73
2023-05-21T16:50:53.735Z,12.81
2023-05-21T16:53:20.810Z,12.91
2023-05-21T16:55:44.566Z,13.02
2023-05-21T16:58:16.299Z,13.10
2023-05-21T17:00:42.633Z,13.15
2023-05-21T17:03:03.841Z,13.19
2023-05-21T17:05:34.025Z,13.23
2023-05-21T17:07:59.884Z,13.24
2023-05-21T17:10:22.120Z,13.23
2023-05-21T17:12:46.844Z,13.26
2023-05-21T17:15:20.180Z,13.23
2023-05-21T17:17:45.471Z,13.16
2023-05-21T17:20:08.154Z,13.11
2023-05-21T17:22:35.401Z,13.16
2023-05-21T17:25:02.413Z,13.20
2023-05-21T17:27:29.334Z,13.25
2023-05-21T17:29:56.903Z,13.28
2023-05-21T17:32:28.116Z,13.32
2023-05-21T17:34:48.539Z,13.38
2023-05-21T17:37:12.802Z,13.48
2023-05-21T17:39:46.000Z,13.52
2023-05-21T17:42:20.576Z,13.53
2023-05-21T17:44:54.477Z,13.54
2023-05-21T17:47:30.676Z,13.52
2023-05-21T17:49:59.116Z,13.53
2023-05-21T17:52:33.046Z,13.56
2023-05-21T17:55:08.829Z,13.60
2023-05-21T17:57:34.584Z,13.59
2023-05-21T17:59:57.309Z,13.64
2023-05-21T18:02:21.017Z,13.70
2023-05-21T18:04:45.548Z,13.69
2023-05-21T18:07:20.014Z,13.68
2023-05-21T18:09:44.081Z,13.70
2023-05-21T18:12:17.688Z,13.71
2023-05-21T18:14:42.858Z,13.74
2023-05-21T18:17:13.963Z,13.78
2023-05-21T18:19:38.541Z,13.80
2023-05-21T18:22:04.178Z,13.83
2023-05-21T18:24:25.523Z,13.88
2023-05-21T18:26:46.978Z,13.93
2023-05-21T18:29:14.430Z,14.09
2023-05-21T18:31:39.576Z,14.26
2023-05-21T18:34:08.810Z,14.41
2023-05-21T18:36:40.144Z,14.49
2023-05-21T18:39:17.254Z,14.47
2023-05-21T18:41:55.809Z,14.48
2023-05-21T18:44:22.249Z,14.63
2023-05-21T18:46:50.909Z,14.73
2023-05-21T18:49:16.616Z,14.74
2023-05-21T18:51:34.791Z,14.74
2023-05-21T18:53:57.755Z,14.74
2023-05-21T18:56:24.830Z,14.76
2023-05-21T18:58:52.313Z,14.66
2023-05-21T19:01:12.137Z,14.56
2023-05-21T19:03:37.851Z,14.51
2023-05-21T19:05:55.936Z,14.45
2023-05-21T19:08:17.948Z,14.46
2023-05-21T19:13:11.943Z,14.62
2023-05-21T19:15:40.901Z,14.87
2023-05-21T19:18:08.100Z,15.09
2023-05-21T19:20:43.133Z,15.25
2023-05-21T19:23:07.598Z,15.25
2023-05-21T19:25:30.078Z,15.21
2023-05-21T19:28:04.584Z,15.35
2023-05-21T19:30:36.260Z,15.40
2023-05-21T19:33:08.141Z,15.53
2023-05-21T19:35:35.735Z,15.67
2023-05-21T19:38:05.151Z,15.78
2023-05-21T19:40:42.800Z,15.92
2023-05-21T19:43:18.654Z,16.03
2023-05-21T19:45:54.468Z,16.12
2023-05-21T19:48:22.150Z,16.16
2023-05-21T19:50:48.818Z,16.12
2023-05-21T19:53:16.113Z,16.01
2023-05-21T19:55:36.560Z,15.82
2023-05-21T19:58:00.932Z,15.85
2023-05-21T20:00:28.748Z,15.94
2023-05-21T20:02:56.160Z,16.11
2023-05-21T20:05:21.631Z,16.27
2023-05-21T20:07:48.792Z,16.32
2023-05-21T20:10:15.094Z,16.30
2023-05-21T20:12:38.863Z,16.16
2023-05-21T20:15:06.804Z,16.04
2023-05-21T20:17:35.251Z,16.00
2023-05-21T20:20:02.587Z,16.04
2023-05-21T20:22:28.842Z,16.03
2023-05-21T20:24:54.073Z,16.10
2023-05-21T20:27:16.225Z,16.23
2023-05-21T20:29:44.026Z,16.27
2023-05-21T20:32:03.212Z,16.42
2023-05-21T20:34:28.400Z,16.52
2023-05-21T20:37:04.085Z,16.56
2023-05-21T20:39:28.557Z,16.64
2023-05-21T20:41:57.004Z,16.69
2023-05-21T20:44:19.365Z,16.80
2023-05-21T20:46:41.356Z,16.81
2023-05-21T20:49:02.997Z,16.86
2023-05-21T20:51:30.694Z,16.95
2023-05-21T20:54:04.025Z,17.12
2023-05-21T20:56:41.602Z,17.26
2023-05-21T20:59:17.904Z,17.37
2023-05-21T21:01:51.764Z,17.29
2023-05-21T21:04:26.819Z,17.32
2023-05-21T21:07:03.193Z,17.10
2023-05-21T21:09:26.684Z,17.01
2023-05-21T21:11:57.156Z,16.98
2023-05-21T21:14:24.345Z,16.94
2023-05-21T21:16:52.893Z,16.96
2023-05-21T21:19:13.538Z,17.04
2023-05-21T21:21:34.310Z,17.09
2023-05-21T21:24:00.057Z,17.15
2023-05-21T21:26:28.204Z,17.30
2023-05-21T21:28:48.560Z,17.39
2023-05-21T21:31:08.283Z,17.33
2023-05-21T21:33:28.290Z,17.40
2023-05-21T21:35:56.042Z,17.27
2023-05-21T21:38:20.760Z,16.95
2023-05-21T21:40:55.594Z,16.67
2023-05-21T21:43:28.972Z,16.42
2023-05-21T21:46:00.213Z,16.26
2023-05-21T21:48:25.391Z,16.10
2023-05-21T21:50:50.140Z,15.91
2023-05-21T21:53:14.024Z,15.71
2023-05-21T21:55:40.976Z,15.47
2023-05-21T21:58:15.564Z,15.25
2023-05-21T22:00:34.557Z,15.10
2023-05-21T22:02:59.602Z,14.94
2023-05-21T22:05:19.041Z,14.73
2023-05-21T22:07:49.894Z,14.52
2023-05-21T22:10:17.581Z,14.38
2023-05-21T22:12:44.952Z,14.27
2023-05-21T22:15:06.783Z,14.18
2023-05-21T22:17:32.538Z,14.14
2023-05-21T22:19:57.787Z,14.11
2023-05-21T22:22:18.702Z,14.13
2023-05-21T22:24:36.195Z,14.20
2023-05-21T22:27:02.384Z,14.32
2023-05-21T22:29:22.368Z,14.40
2023-05-21T22:31:42.673Z,14.47
2023-05-21T22:34:02.392Z,14.56
2023-05-21T22:36:19.711Z,14.62
2023-05-21T22:38:38.821Z,14.71
2023-05-21T22:41:10.394Z,14.81
2023-05-21T22:43:32.023Z,14.92
2023-05-21T22:46:02.914Z,14.95
2023-05-21T22:48:25.467Z,14.98
2023-05-21T22:50:59.362Z,15.03
2023-05-21T22:53:25.530Z,15.09
2023-05-21T22:55:51.636Z,15.03
2023-05-21T22:58:19.985Z,15.00
2023-05-21T23:00:53.488Z,15.03
2023-05-21T23:03:18.586Z,15.14
2023-05-21T23:05:52.459Z,15.29
2023-05-21T23:08:13.570Z,15.47
2023-05-21T23:10:39.248Z,15.76
2023-05-21T23:12:59.565Z,16.02
2023-05-21T23:15:34.961Z,16.20
2023-05-21T23:18:01.541Z,16.25
2023-05-21T23:20:27.908Z,16.10
2023-05-21T23:23:00.300Z,15.98
2023-05-21T23:25:30.225Z,15.85
2023-05-21T23:27:50.630Z,15.80
2023-05-21T23:30:11.910Z,15.84
2023-05-21T23:32:35.945Z,15.82
2023-05-21T23:34:57.970Z,15.77
2023-05-21T23:37:23.210Z,15.71
2023-05-21T23:39:45.392Z,15.67
2023-05-21T23:42:20.412Z,15.56
2023-05-21T23:44:48.070Z,15.46
2023-05-21T23:47:11.407Z,15.39
2023-05-21T23:49:36.886Z,15.22
2023-05-21T23:52:04.183Z,15.11
2023-05-21T23:54:21.937Z,15.05
2023-05-21T23:56:44.664Z,14.94
2023-05-21T23:59:11.002Z,14.83
